createdAt,value
2023-04-19T00:02:54.443Z,37.79
2023-04-19T00:05:41.842Z,37.67
2023-04-19T00:08:28.548Z,37.77
2023-04-19T00:11:15.361Z,37.69
2023-04-19T00:14:02.381Z,37.81
2023-04-19T00:16:49.350Z,37.82
2023-04-19T00:19:36.208Z,37.75
2023-04-19T00:22:23.114Z,37.76
2023-04-19T00:25:10.125Z,37.82
2023-04-19T00:27:57.045Z,37.83
2023-04-19T00:30:43.808Z,37.81
2023-04-19T00:33:31.051Z,37.88
2023-04-19T00:36:17.790Z,37.85
2023-04-19T00:39:08.094Z,37.94
2023-04-19T00:41:57.860Z,37.92
2023-04-19T00:44:44.990Z,37.89
2023-04-19T00:47:32.091Z,37.96
2023-04-19T00:50:19.417Z,37.97
2023-04-19T00:53:08.077Z,38.09
2023-04-19T00:56:00.720Z,37.92
2023-04-19T00:58:48.832Z,38.01
2023-04-19T01:01:35.715Z,37.98
2023-04-19T01:04:23.180Z,38.06
2023-04-19T01:07:11.152Z,38.10
2023-04-19T01:09:58.368Z,38.08
2023-04-19T01:12:45.282Z,38.10
2023-04-19T01:15:32.441Z,38.06
2023-04-19T01:18:19.724Z,38.14
2023-04-19T01:21:07.449Z,38.13
2023-04-19T01:23:54.166Z,38.13
2023-04-19T01:26:42.312Z,38.25
2023-04-19T01:29:29.452Z,38.19
2023-04-19T01:32:17.578Z,38.21
2023-04-19T01:35:06.323Z,38.20
2023-04-19T01:37:56.518Z,38.19
2023-04-19T01:40:44.242Z,38.14
2023-04-19T01:43:31.167Z,38.16
2023-04-19T01:46:18.053Z,38.23
2023-04-19T01:49:05.412Z,38.18
2023-04-19T01:51:52.709Z,38.19
2023-04-19T01:54:40.405Z,38.26
2023-04-19T01:57:27.296Z,38.24
2023-04-19T02:00:15.480Z,38.29
2023-04-19T02:03:02.224Z,38.26
2023-04-19T02:05:49.539Z,38.26
2023-04-19T02:08:36.455Z,38.25
2023-04-19T02:11:24.968Z,38.31
2023-04-19T02:14:11.919Z,38.23
2023-04-19T02:16:59.035Z,38.27
2023-04-19T02:19:45.951Z,38.28
2023-04-19T02:22:33.071Z,38.26
2023-04-19T02:25:20.295Z,38.30
2023-04-19T02:28:07.506Z,38.25
2023-04-19T02:30:54.530Z,38.24
2023-04-19T02:33:41.746Z,38.20
2023-04-19T02:36:28.867Z,38.24
2023-04-19T02:39:17.012Z,38.18
2023-04-19T02:42:04.537Z,38.19
2023-04-19T02:44:52.826Z,38.20
2023-04-19T02:47:43.827Z,38.28
2023-04-19T02:50:32.133Z,38.29
2023-04-19T02:53:19.043Z,38.20
2023-04-19T02:56:08.111Z,38.26
2023-04-19T02:58:55.256Z,38.29
2023-04-19T03:01:42.168Z,38.16
2023-04-19T03:04:29.565Z,38.20
2023-04-19T03:07:16.579Z,38.13
2023-04-19T03:10:03.706Z,38.16
2023-04-19T03:12:51.330Z,38.09
2023-04-19T03:15:38.989Z,38.18
2023-04-19T03:18:27.181Z,38.19
2023-04-19T03:21:14.931Z,38.16
2023-04-19T03:24:09.328Z,38.14
2023-04-19T03:26:58.496Z,38.26
2023-04-19T03:29:49.007Z,38.20
2023-04-19T03:32:36.444Z,38.22
2023-04-19T03:35:26.407Z,38.37
2023-04-19T03:38:14.555Z,38.48
2023-04-19T03:41:02.787Z,38.44
2023-04-19T03:43:53.401Z,38.50
2023-04-19T03:46:40.747Z,38.46
2023-04-19T03:49:28.542Z,38.47
2023-04-19T03:52:22.619Z,38.45
2023-04-19T03:55:12.734Z,38.53
2023-04-19T03:58:00.747Z,38.56
2023-04-19T04:01:18.894Z,38.62
2023-04-19T04:04:06.189Z,39.17
2023-04-19T04:06:53.428Z,40.26
2023-04-19T04:09:40.942Z,40.44
2023-04-19T04:12:28.483Z,40.31
2023-04-19T04:15:15.828Z,40.08
2023-04-19T04:18:09.015Z,39.86
2023-04-19T04:20:56.971Z,39.73
2023-04-19T04:23:48.246Z,39.55
2023-04-19T04:26:41.182Z,39.48
2023-04-19T04:29:49.858Z,39.45
2023-04-19T04:32:38.522Z,39.35
2023-04-19T04:35:26.277Z,39.59
2023-04-19T04:38:24.540Z,40.76
2023-04-19T04:41:13.250Z,41.27
2023-04-19T04:46:51.175Z,41.52
2023-04-19T04:49:43.544Z,41.57
2023-04-19T04:52:30.420Z,41.44
2023-04-19T04:55:23.892Z,41.30
2023-04-19T04:58:11.108Z,41.29
2023-04-19T05:01:27.312Z,41.28
2023-04-19T05:04:15.139Z,41.07
2023-04-19T05:07:03.993Z,40.99
2023-04-19T05:09:51.599Z,40.80
2023-04-19T05:12:42.718Z,40.57
2023-04-19T05:15:29.838Z,40.40
2023-04-19T05:18:17.314Z,40.25
2023-04-19T05:21:04.653Z,40.12
2023-04-19T05:23:53.537Z,40.03
2023-04-19T05:26:41.108Z,39.92
2023-04-19T05:29:28.338Z,39.85
2023-04-19T05:32:15.958Z,39.67
2023-04-19T05:35:08.957Z,39.63
2023-04-19T05:37:56.371Z,39.57
2023-04-19T05:40:44.440Z,39.40
2023-04-19T05:43:31.148Z,39.30
2023-04-19T05:46:18.649Z,39.19
2023-04-19T05:49:05.968Z,39.15
2023-04-19T05:52:05.295Z,39.00
2023-04-19T05:55:18.295Z,39.01
2023-04-19T05:58:05.460Z,38.91
2023-04-19T06:00:52.510Z,38.79
2023-04-19T06:03:39.993Z,38.72
2023-04-19T06:06:27.549Z,38.65
2023-04-19T06:09:15.249Z,38.58
2023-04-19T06:12:02.077Z,38.51
2023-04-19T06:14:49.366Z,38.45
2023-04-19T06:17:36.568Z,38.34
2023-04-19T06:20:23.690Z,38.35
2023-04-19T06:23:13.044Z,38.22
2023-04-19T06:25:59.854Z,38.18
2023-04-19T06:28:46.724Z,38.15
2023-04-19T06:31:34.087Z,38.09
2023-04-19T06:34:21.348Z,37.95
2023-04-19T06:37:07.913Z,37.95
2023-04-19T06:39:54.627Z,37.91
2023-04-19T06:42:41.176Z,37.83
2023-04-19T06:45:28.100Z,37.75
2023-04-19T06:48:15.014Z,37.63
2023-04-19T06:51:02.013Z,37.62
2023-04-19T06:53:51.009Z,37.47
2023-04-19T06:56:42.319Z,37.42
2023-04-19T06:59:31.722Z,37.21
2023-04-19T07:02:18.622Z,37.20
2023-04-19T07:05:06.091Z,37.23
2023-04-19T07:07:53.200Z,37.19
2023-04-19T07:10:40.019Z,37.01
2023-04-19T07:13:26.794Z,36.91
2023-04-19T07:16:14.944Z,36.94
2023-04-19T07:19:01.850Z,36.90
2023-04-19T07:21:49.387Z,37.02
2023-04-19T07:24:36.615Z,37.25
2023-04-19T07:27:23.415Z,37.28
2023-04-19T07:30:11.309Z,37.23
2023-04-19T07:32:58.517Z,37.36
2023-04-19T07:35:45.694Z,37.51
2023-04-19T07:38:33.256Z,37.76
2023-04-19T07:41:20.944Z,37.86
2023-04-19T07:44:08.068Z,37.89
2023-04-19T07:46:55.250Z,37.79
2023-04-19T07:49:44.671Z,37.88
2023-04-19T07:52:31.883Z,37.80
2023-04-19T07:55:19.102Z,37.73
2023-04-19T07:58:06.726Z,37.76
2023-04-19T08:00:53.879Z,37.59
2023-04-19T08:03:41.746Z,37.48
2023-04-19T08:06:30.724Z,37.53
2023-04-19T08:09:18.058Z,37.53
2023-04-19T08:12:05.709Z,37.53
2023-04-19T08:15:03.835Z,37.54
2023-04-19T08:17:57.978Z,37.41
2023-04-19T08:20:49.587Z,37.27
2023-04-19T08:23:47.411Z,37.42
2023-04-19T08:26:35.697Z,37.33
2023-04-19T08:29:23.277Z,37.48
2023-04-19T08:32:12.268Z,37.43
2023-04-19T08:35:01.279Z,37.24
2023-04-19T08:37:49.560Z,37.16
2023-04-19T08:40:41.837Z,37.21
2023-04-19T08:43:33.476Z,37.03
2023-04-19T08:46:23.786Z,37.12
2023-04-19T08:49:11.506Z,36.97
2023-04-19T08:51:59.434Z,36.69
2023-04-19T08:54:46.861Z,36.73
2023-04-19T08:57:34.917Z,36.92
2023-04-19T09:00:22.012Z,36.64
2023-04-19T09:03:09.726Z,36.40
2023-04-19T09:05:57.332Z,36.57
2023-04-19T09:08:44.804Z,36.43
2023-04-19T09:11:40.751Z,36.11
2023-04-19T09:14:29.070Z,36.04
2023-04-19T09:17:16.584Z,35.95
2023-04-19T09:20:05.529Z,35.93
2023-04-19T09:23:06.306Z,36.06
2023-04-19T09:26:22.321Z,36.05
2023-04-19T09:29:08.291Z,36.19
2023-04-19T09:31:59.770Z,36.16
2023-04-19T09:35:00.059Z,35.94
2023-04-19T09:46:37.170Z,35.67
2023-04-19T09:49:37.631Z,35.68
2023-04-19T09:52:34.154Z,35.64
2023-04-19T09:55:27.927Z,35.45
2023-04-19T09:58:17.190Z,35.29
2023-04-19T10:01:14.039Z,35.37
2023-04-19T10:10:05.055Z,35.39
2023-04-19T10:13:16.024Z,35.22
2023-04-19T10:16:18.029Z,35.22
2023-04-19T10:25:13.435Z,35.50
2023-04-19T10:28:00.690Z,35.51
2023-04-19T10:31:05.401Z,35.57
2023-04-19T10:33:53.498Z,35.47
2023-04-19T10:36:40.600Z,35.47
2023-04-19T10:39:45.550Z,35.47
2023-04-19T10:43:11.164Z,35.41
2023-04-19T10:46:25.693Z,35.49
2023-04-19T10:49:13.799Z,35.36
2023-04-19T10:58:07.279Z,35.52
2023-04-19T11:01:33.693Z,35.60
2023-04-19T11:04:30.020Z,35.58
2023-04-19T11:10:31.518Z,35.29
2023-04-19T11:13:18.690Z,35.31
2023-04-19T11:16:09.191Z,35.39
2023-04-19T11:18:56.476Z,35.52
2023-04-19T11:21:46.445Z,35.60
2023-04-19T11:24:35.444Z,35.52
2023-04-19T11:27:22.537Z,35.60
2023-04-19T11:30:12.428Z,35.68
2023-04-19T11:32:59.947Z,35.65
2023-04-19T11:41:30.608Z,35.88
2023-04-19T11:44:20.597Z,35.86
2023-04-19T11:47:07.933Z,35.90
2023-04-19T11:49:58.998Z,35.88
2023-04-19T11:52:49.828Z,35.95
2023-04-19T11:55:37.377Z,35.95
2023-04-19T11:58:29.839Z,35.96
2023-04-19T12:10:10.490Z,36.13
2023-04-19T12:12:58.287Z,36.15
2023-04-19T12:15:47.106Z,36.12
2023-04-19T12:18:50.004Z,36.24
2023-04-19T12:21:36.710Z,36.32
2023-04-19T12:24:23.451Z,36.16
2023-04-19T12:27:11.623Z,36.00
2023-04-19T12:29:58.922Z,36.17
2023-04-19T12:32:46.245Z,36.05
2023-04-19T12:35:34.211Z,35.92
2023-04-19T12:38:21.578Z,36.01
2023-04-19T12:41:08.399Z,36.08
2023-04-19T12:43:55.833Z,36.12
2023-04-19T12:46:42.764Z,36.26
2023-04-19T12:49:29.666Z,36.21
2023-04-19T12:52:16.555Z,36.05
2023-04-19T12:55:03.370Z,35.94
2023-04-19T12:57:50.468Z,35.94
2023-04-19T13:00:37.206Z,35.90
2023-04-19T13:03:24.283Z,35.85
2023-04-19T13:06:14.924Z,35.78
2023-04-19T13:09:11.432Z,35.74
2023-04-19T13:12:01.662Z,35.60
2023-04-19T13:14:51.737Z,35.80
2023-04-19T13:17:38.904Z,35.89
2023-04-19T13:20:26.364Z,35.63
2023-04-19T13:23:13.184Z,35.60
2023-04-19T13:26:00.426Z,35.43
2023-04-19T13:28:47.850Z,35.28
2023-04-19T13:31:34.988Z,35.16
2023-04-19T13:34:21.981Z,35.15
2023-04-19T13:37:08.886Z,35.15
2023-04-19T13:40:04.280Z,34.96
2023-04-19T13:42:57.868Z,34.87
2023-04-19T13:45:45.723Z,34.85
2023-04-19T13:48:33.049Z,34.68
2023-04-19T13:51:19.860Z,34.72
2023-04-19T13:54:06.731Z,34.73
2023-04-19T13:56:53.671Z,34.75
2023-04-19T13:59:40.482Z,34.73
2023-04-19T14:02:28.704Z,34.79
2023-04-19T14:05:15.958Z,34.71
2023-04-19T14:08:03.787Z,34.76
2023-04-19T14:10:51.058Z,34.75
2023-04-19T14:13:37.807Z,34.73
2023-04-19T14:16:25.606Z,34.98
2023-04-19T14:19:12.463Z,35.10
2023-04-19T14:22:00.402Z,35.23
2023-04-19T14:24:47.622Z,35.23
2023-04-19T14:27:34.953Z,35.36
2023-04-19T14:30:22.162Z,35.28
2023-04-19T14:33:10.834Z,35.19
2023-04-19T14:35:58.142Z,35.36
2023-04-19T14:38:45.150Z,35.44
2023-04-19T14:41:32.069Z,35.37
2023-04-19T14:44:19.189Z,35.49
2023-04-19T14:47:06.137Z,35.54
2023-04-19T14:49:52.914Z,35.87
2023-04-19T14:52:40.042Z,35.75
2023-04-19T14:55:28.061Z,35.80
2023-04-19T14:58:14.882Z,35.93
2023-04-19T15:01:11.337Z,35.88
2023-04-19T15:03:58.112Z,35.89
2023-04-19T15:06:46.989Z,36.07
2023-04-19T15:09:33.815Z,36.00
2023-04-19T15:12:21.233Z,36.23
2023-04-19T15:15:08.852Z,36.21
2023-04-19T15:17:55.878Z,36.19
2023-04-19T15:20:43.101Z,36.21
2023-04-19T15:23:30.203Z,36.16
2023-04-19T15:26:17.239Z,36.22
2023-04-19T15:29:04.566Z,36.18
2023-04-19T15:31:51.405Z,36.15
2023-04-19T15:34:37.970Z,36.27
2023-04-19T15:37:24.882Z,36.12
2023-04-19T15:40:14.483Z,36.03
2023-04-19T15:43:01.157Z,36.08
2023-04-19T15:45:48.132Z,36.06
2023-04-19T15:48:34.996Z,36.08
2023-04-19T15:51:22.538Z,36.11
2023-04-19T15:54:12.012Z,36.23
2023-04-19T15:56:59.121Z,36.40
2023-04-19T15:59:46.326Z,36.57
2023-04-19T16:02:34.127Z,36.68
2023-04-19T16:05:22.289Z,36.74
2023-04-19T16:08:21.219Z,36.83
2023-04-19T16:11:08.219Z,36.88
2023-04-19T16:13:55.652Z,37.01
2023-04-19T16:16:43.129Z,36.81
2023-04-19T16:19:29.786Z,36.95
2023-04-19T16:22:16.609Z,36.85
2023-04-19T16:25:03.391Z,36.91
2023-04-19T16:27:50.426Z,36.90
2023-04-19T16:30:37.753Z,36.93
2023-04-19T16:33:24.649Z,36.95
2023-04-19T16:36:11.887Z,36.93
2023-04-19T16:38:58.681Z,36.80
2023-04-19T16:41:45.678Z,36.74
2023-04-19T16:44:32.945Z,36.78
2023-04-19T16:47:19.741Z,36.77
2023-04-19T16:50:07.062Z,36.60
2023-04-19T16:52:53.970Z,36.47
2023-04-19T16:55:40.989Z,36.50
2023-04-19T16:58:28.212Z,36.56
2023-04-19T17:01:15.246Z,36.45
2023-04-19T17:04:02.514Z,36.34
2023-04-19T17:06:49.462Z,36.36
2023-04-19T17:09:36.508Z,36.30
2023-04-19T17:12:23.410Z,36.22
2023-04-19T17:15:11.149Z,36.16
2023-04-19T17:17:58.180Z,36.20
2023-04-19T17:20:45.259Z,36.17
2023-04-19T17:23:32.289Z,36.14
2023-04-19T17:26:19.494Z,36.15
2023-04-19T17:29:06.636Z,36.16
2023-04-19T17:31:54.022Z,36.14
2023-04-19T17:34:40.853Z,36.09
2023-04-19T17:37:27.768Z,36.05
2023-04-19T17:40:15.192Z,36.08
2023-04-19T17:43:02.307Z,35.99
2023-04-19T17:45:49.521Z,36.00
2023-04-19T17:48:36.236Z,35.97
2023-04-19T17:51:23.254Z,35.87
2023-04-19T17:54:10.682Z,35.91
2023-04-19T17:56:59.528Z,35.89
2023-04-19T17:59:46.352Z,35.92
2023-04-19T18:02:34.750Z,35.88
2023-04-19T18:05:22.445Z,35.97
2023-04-19T18:08:10.271Z,36.28
2023-04-19T18:10:57.035Z,36.44
2023-04-19T18:13:46.671Z,36.63
2023-04-19T18:16:35.661Z,36.63
2023-04-19T18:19:24.167Z,36.64
2023-04-19T18:22:11.090Z,36.58
2023-04-19T18:24:57.798Z,36.50
2023-04-19T18:27:45.339Z,36.54
2023-04-19T18:30:32.428Z,36.45
2023-04-19T18:33:19.320Z,36.43
2023-04-19T18:36:06.371Z,36.32
2023-04-19T18:38:53.785Z,36.31
2023-04-19T18:41:41.127Z,36.39
2023-04-19T18:44:49.478Z,36.31
2023-04-19T18:47:35.527Z,36.17
2023-04-19T18:50:22.339Z,36.29
2023-04-19T18:53:09.343Z,36.19
2023-04-19T18:55:59.775Z,36.13
2023-04-19T18:58:46.867Z,36.14
2023-04-19T19:01:34.016Z,36.13
2023-04-19T19:04:37.378Z,36.14
2023-04-19T19:10:22.400Z,36.20
2023-04-19T19:16:11.059Z,36.96
2023-04-19T19:18:58.482Z,37.41
2023-04-19T19:21:47.538Z,37.56
2023-04-19T19:24:37.681Z,38.20
2023-04-19T19:27:24.803Z,38.54
2023-04-19T19:30:12.280Z,38.85
2023-04-19T19:32:59.953Z,39.04
2023-04-19T19:35:46.924Z,39.04
2023-04-19T19:38:37.620Z,38.99
2023-04-19T19:41:55.254Z,38.83
2023-04-19T19:44:31.904Z,38.77
2023-04-19T19:47:18.791Z,38.66
2023-04-19T19:52:57.138Z,38.57
2023-04-19T19:55:43.885Z,38.51
2023-04-19T20:01:22.742Z,38.44
2023-04-19T20:04:10.499Z,38.50
2023-04-19T20:07:28.631Z,38.48
2023-04-19T20:10:10.754Z,38.45
2023-04-19T20:12:58.591Z,38.38
2023-04-19T20:15:47.389Z,38.17
2023-04-19T20:18:35.101Z,38.07
2023-04-19T20:21:22.077Z,38.02
2023-04-19T20:24:09.160Z,37.91
2023-04-19T20:26:55.865Z,37.90
2023-04-19T20:29:42.997Z,37.74
2023-04-19T20:32:30.093Z,37.59
2023-04-19T20:35:17.427Z,37.62
2023-04-19T20:38:04.362Z,37.85
2023-04-19T20:40:51.255Z,37.78
2023-04-19T20:43:39.076Z,37.93
2023-04-19T20:46:26.243Z,38.01
2023-04-19T20:49:13.334Z,37.98
2023-04-19T20:52:00.460Z,37.90
2023-04-19T20:54:47.802Z,37.75
2023-04-19T20:57:34.932Z,37.60
2023-04-19T21:00:21.602Z,37.62
2023-04-19T21:03:08.929Z,37.68
2023-04-19T21:05:55.727Z,37.69
2023-04-19T21:08:42.656Z,37.66
2023-04-19T21:11:29.760Z,37.61
2023-04-19T21:14:16.878Z,37.58
2023-04-19T21:17:04.101Z,37.55
2023-04-19T21:19:51.091Z,37.41
2023-04-19T21:22:42.783Z,37.51
2023-04-19T21:25:29.664Z,37.38
2023-04-19T21:28:16.478Z,37.44
2023-04-19T21:31:03.574Z,37.33
2023-04-19T21:33:50.195Z,37.35
2023-04-19T21:36:37.420Z,37.29
2023-04-19T21:39:24.332Z,37.22
2023-04-19T21:42:11.435Z,37.28
2023-04-19T21:44:58.312Z,37.26
2023-04-19T21:47:46.029Z,37.22
2023-04-19T21:50:33.419Z,37.14
2023-04-19T21:53:21.248Z,37.20
2023-04-19T21:56:08.780Z,37.16
2023-04-19T21:58:55.702Z,37.11
2023-04-19T22:01:42.652Z,37.00
2023-04-19T22:04:31.218Z,37.08
2023-04-19T22:07:18.903Z,37.09
2023-04-19T22:10:07.215Z,37.05
2023-04-19T22:12:58.764Z,36.96
2023-04-19T22:15:46.191Z,36.98
2023-04-19T22:18:34.717Z,36.79
2023-04-19T22:21:21.873Z,36.78
2023-04-19T22:24:09.490Z,36.76
2023-04-19T22:26:57.475Z,36.72
2023-04-19T22:29:44.434Z,36.49
2023-04-19T22:32:31.599Z,36.64
2023-04-19T22:35:19.587Z,36.38
2023-04-19T22:38:08.357Z,36.08
2023-04-19T22:40:54.960Z,36.39
2023-04-19T22:43:41.975Z,36.58
2023-04-19T22:46:29.125Z,36.68
2023-04-19T22:49:16.443Z,36.63
2023-04-19T22:52:04.253Z,36.65
2023-04-19T22:54:51.466Z,36.67
2023-04-19T22:57:38.388Z,36.70
2023-04-19T23:00:26.642Z,36.67
2023-04-19T23:03:13.853Z,36.67
2023-04-19T23:06:03.498Z,36.67
2023-04-19T23:08:51.492Z,36.71
2023-04-19T23:11:39.279Z,36.69
2023-04-19T23:14:26.029Z,36.65
2023-04-19T23:17:14.677Z,36.62
2023-04-19T23:20:01.480Z,36.65
2023-04-19T23:22:48.495Z,36.66
2023-04-19T23:25:35.913Z,36.66
2023-04-19T23:28:22.935Z,36.69
2023-04-19T23:31:09.954Z,36.65
2023-04-19T23:33:56.754Z,36.61
2023-04-19T23:36:43.704Z,36.64
2023-04-19T23:39:30.692Z,36.66
2023-04-19T23:42:17.408Z,36.62
2023-04-19T23:45:06.056Z,36.62
2023-04-19T23:47:53.145Z,36.73
2023-04-19T23:50:40.293Z,36.65
2023-04-19T23:53:27.314Z,36.69
2023-04-19T23:56:14.116Z,36.76
2023-04-19T23:59:01.036Z,36.72
